Airport View

Enter AWOS ICAO identifier for current METAR.

ex. KFNL

KCRW 011054Z 29003KT 10SM OVC060 13/10 A2999 RMK AO2 SLP151 T01330100

1 Oct 2020 11:28

Phone: 304-346-4797

Other Area AWOS: K6L4 - K3I2 - KBKW - KHTS

TAF AMD KCRW 011028Z 0110/0206 VRB03KT P6SM BKN060 FM011400 VRB03KT P6SM SKC FM011600 27006KT P6SM SKC FM020000 VRB03KT P6SM SKC